Time;durP1;ratioP1;P1;durP2;ratioP2;P2;SDS_P1;SDS_P2;PMS_P1;PMS_P2;Temp;Humidity;BMP_temperature;BMP_pressure;BME280_temperature;BME280_humidity;BME280_pressure;Samples;Min_cycle;Max_cycle;Signal;HPM_P1;HPM_P2
2022/01/29 00:02:01;;;;;;;50.83;32.73;;;;;;;;;;5069487;28;20044;-71
2022/01/29 00:04:27;;;;;;;59.23;36.00;;;;;;;;;;5070447;28;20048;-71
2022/01/29 00:06:53;;;;;;;53.63;31.83;;;;;;;;;;5070151;28;20391;-71
2022/01/29 00:09:24;;;;;;;47.47;31.03;;;;;;;;;;5067656;28;20044;-72
2022/01/29 00:11:50;;;;;;;50.87;32.93;;;;;;;;;;5051257;28;20052;-72
2022/01/29 00:14:16;;;;;;;47.43;31.00;;;;;;;;;;5050226;28;20149;-72
2022/01/29 00:16:42;;;;;;;55.93;33.00;;;;;;;;;;5049169;28;20088;-72
2022/01/29 00:19:11;;;;;;;54.43;34.47;;;;;;;;;;5049774;28;20418;-72
2022/01/29 00:21:37;;;;;;;44.17;29.47;;;;;;;;;;5050366;28;20372;-72
2022/01/29 00:24:03;;;;;;;56.07;37.07;;;;;;;;;;5050024;28;20052;-72
2022/01/29 00:26:29;;;;;;;58.30;34.73;;;;;;;;;;5067563;28;20067;-72
2022/01/29 00:28:57;;;;;;;59.93;39.57;;;;;;;;;;5069446;28;20507;-72
2022/01/29 00:31:23;;;;;;;57.13;36.07;;;;;;;;;;5069569;28;20056;-72
2022/01/29 00:33:49;;;;;;;57.63;33.43;;;;;;;;;;5069804;28;20416;-72
2022/01/29 00:36:18;;;;;;;51.57;34.27;;;;;;;;;;5069259;28;20087;-72
2022/01/29 00:38:45;;;;;;;57.53;41.07;;;;;;;;;;5069934;28;20066;-72
2022/01/29 00:41:11;;;;;;;58.50;38.67;;;;;;;;;;5069034;28;20127;-72
2022/01/29 00:43:40;;;;;;;71.13;41.87;;;;;;;;;;5069777;28;20438;-72
2022/01/29 00:46:06;;;;;;;69.80;40.73;;;;;;;;;;5069430;28;20044;-72
2022/01/29 00:48:32;;;;;;;80.60;44.23;;;;;;;;;;5069171;28;20045;-72
2022/01/29 00:51:00;;;;;;;79.03;45.77;;;;;;;;;;5068536;28;20670;-72
2022/01/29 00:53:26;;;;;;;79.30;44.93;;;;;;;;;;5069065;28;20037;-72
2022/01/29 00:55:55;;;;;;;85.10;49.90;;;;;;;;;;5069463;28;20053;-72
2022/01/29 00:58:21;;;;;;;88.90;48.03;;;;;;;;;;5069189;28;20109;-72
2022/01/29 01:00:47;;;;;;;87.07;52.77;;;;;;;;;;5067838;28;20048;-72
2022/01/29 01:03:13;;;;;;;93.67;53.17;;;;;;;;;;5069434;28;20056;-72
2022/01/29 01:05:39;;;;;;;90.00;54.27;;;;;;;;;;5066255;28;20132;-72
2022/01/29 01:08:07;;;;;;;96.60;56.13;;;;;;;;;;5049214;28;20494;-72
2022/01/29 01:10:36;;;;;;;104.63;52.40;;;;;;;;;;5049187;28;20057;-72
2022/01/29 01:13:02;;;;;;;81.40;51.43;;;;;;;;;;5048179;28;20048;-72
2022/01/29 01:15:28;;;;;;;87.47;42.60;;;;;;;;;;5049063;28;20049;-72
2022/01/29 01:17:54;;;;;;;95.67;50.53;;;;;;;;;;5048818;28;20094;-72
2022/01/29 01:20:22;;;;;;;106.13;51.00;;;;;;;;;;5049160;28;20045;-72
2022/01/29 01:22:48;;;;;;;95.37;50.70;;;;;;;;;;5048196;28;20118;-72
2022/01/29 01:25:14;;;;;;;90.33;50.27;;;;;;;;;;5048938;28;20057;-72
2022/01/29 01:27:40;;;;;;;89.73;52.00;;;;;;;;;;5059442;28;20047;-72
2022/01/29 01:30:07;;;;;;;92.53;58.87;;;;;;;;;;5068529;28;20092;-72
2022/01/29 01:32:33;;;;;;;94.03;50.03;;;;;;;;;;5068795;28;20117;-72
2022/01/29 01:35:09;;;;;;;98.77;49.27;;;;;;;;;;5068545;28;20044;-72
2022/01/29 01:37:51;;;;;;;91.53;51.73;;;;;;;;;;5067458;28;20479;-72
2022/01/29 01:40:19;;;;;;;97.73;49.30;;;;;;;;;;5059730;28;20503;-72
2022/01/29 01:42:47;;;;;;;104.67;50.50;;;;;;;;;;5048815;28;20465;-72
2022/01/29 01:45:16;;;;;;;99.80;50.63;;;;;;;;;;5048373;28;20079;-72
2022/01/29 01:47:42;;;;;;;98.73;47.73;;;;;;;;;;5048361;28;20063;-72
2022/01/29 01:50:09;;;;;;;86.73;44.37;;;;;;;;;;5048814;28;20877;-72
2022/01/29 01:52:35;;;;;;;102.50;50.43;;;;;;;;;;5047269;28;20045;-72
2022/01/29 01:55:05;;;;;;;92.93;49.23;;;;;;;;;;5051890;28;20045;-72
2022/01/29 01:57:31;;;;;;;94.03;49.43;;;;;;;;;;5048679;28;20084;-72
2022/01/29 01:59:57;;;;;;;110.07;52.57;;;;;;;;;;5048592;28;20041;-72
2022/01/29 02:02:23;;;;;;;110.57;51.87;;;;;;;;;;5049634;28;20049;-72
2022/01/29 02:04:49;;;;;;;111.53;52.13;;;;;;;;;;5052455;28;20049;-72
2022/01/29 02:07:15;;;;;;;115.70;50.13;;;;;;;;;;5052404;28;20071;-72
2022/01/29 02:09:44;;;;;;;116.03;51.37;;;;;;;;;;5054464;28;20044;-72
2022/01/29 02:12:12;;;;;;;106.87;52.10;;;;;;;;;;5072276;28;20048;-72
2022/01/29 02:14:39;;;;;;;115.60;50.57;;;;;;;;;;5070119;28;20044;-72
2022/01/29 02:17:09;;;;;;;110.47;53.13;;;;;;;;;;5072528;28;20457;-72
2022/01/29 02:19:35;;;;;;;109.33;51.73;;;;;;;;;;5071851;28;20048;-72
2022/01/29 02:22:01;;;;;;;102.50;49.13;;;;;;;;;;5072800;28;20110;-72
2022/01/29 02:24:27;;;;;;;101.87;46.57;;;;;;;;;;5072459;28;20044;-71
2022/01/29 02:26:54;;;;;;;105.57;51.07;;;;;;;;;;5070159;28;20093;-72
2022/01/29 02:29:23;;;;;;;108.30;50.97;;;;;;;;;;5071000;28;20087;-72
2022/01/29 02:31:50;;;;;;;121.67;53.60;;;;;;;;;;5071816;28;20075;-72
2022/01/29 02:34:16;;;;;;;121.97;53.47;;;;;;;;;;5071446;28;20070;-72
2022/01/29 02:36:43;;;;;;;120.57;50.50;;;;;;;;;;5071040;28;20070;-72
2022/01/29 02:39:13;;;;;;;116.13;52.87;;;;;;;;;;5071809;28;20052;-72
2022/01/29 02:41:42;;;;;;;113.57;50.87;;;;;;;;;;5051615;28;20095;-72
2022/01/29 02:44:19;;;;;;;114.97;52.30;;;;;;;;;;5051709;28;20049;-71
2022/01/29 02:49:19;;;;;;;131.77;52.80;;;;;;;;;;5051793;28;20049;-71
2022/01/29 02:51:52;;;;;;;113.00;56.40;;;;;;;;;;5051295;28;20049;-71
2022/01/29 02:54:18;;;;;;;127.00;51.47;;;;;;;;;;5051617;28;20045;-71
2022/01/29 02:56:46;;;;;;;118.00;50.93;;;;;;;;;;5052040;28;20052;-72
2022/01/29 02:59:13;;;;;;;117.83;52.40;;;;;;;;;;5051638;28;20056;-71
2022/01/29 03:01:39;;;;;;;115.83;51.70;;;;;;;;;;5051242;28;20095;-72
2022/01/29 03:04:05;;;;;;;111.07;50.90;;;;;;;;;;5051695;28;20037;-72
2022/01/29 03:06:32;;;;;;;117.67;51.97;;;;;;;;;;5051047;28;20487;-72
2022/01/29 03:08:58;;;;;;;105.40;50.60;;;;;;;;;;5051484;28;20060;-72
2022/01/29 03:11:27;;;;;;;120.73;51.23;;;;;;;;;;5051321;28;20049;-72
2022/01/29 03:13:53;;;;;;;106.63;49.43;;;;;;;;;;5050508;28;20045;-72
2022/01/29 03:16:19;;;;;;;109.70;50.67;;;;;;;;;;5050939;28;20136;-72
2022/01/29 03:18:45;;;;;;;104.17;46.77;;;;;;;;;;5051527;28;20044;-72
2022/01/29 03:21:11;;;;;;;109.40;48.23;;;;;;;;;;5051293;28;20568;-73
2022/01/29 03:23:37;;;;;;;104.70;44.83;;;;;;;;;;5050858;28;20558;-72
2022/01/29 03:26:06;;;;;;;98.50;45.40;;;;;;;;;;5049565;28;20163;-72
2022/01/29 03:28:32;;;;;;;101.27;45.93;;;;;;;;;;5051145;28;20076;-73
2022/01/29 03:30:58;;;;;;;100.07;48.60;;;;;;;;;;5050470;28;20122;-72
2022/01/29 03:33:24;;;;;;;102.30;48.40;;;;;;;;;;5051020;28;20132;-72
2022/01/29 03:35:51;;;;;;;88.63;39.27;;;;;;;;;;5050774;28;20475;-72
2022/01/29 03:38:17;;;;;;;90.57;40.30;;;;;;;;;;5050599;28;20041;-72
2022/01/29 03:40:46;;;;;;;91.77;42.10;;;;;;;;;;5061057;28;20101;-72
2022/01/29 03:43:14;;;;;;;82.10;38.37;;;;;;;;;;5070932;28;20506;-72
2022/01/29 03:45:40;;;;;;;77.90;38.97;;;;;;;;;;5069304;28;20685;-72
2022/01/29 03:48:09;;;;;;;75.50;37.50;;;;;;;;;;5052746;28;20119;-72
2022/01/29 03:50:36;;;;;;;78.60;35.10;;;;;;;;;;5070262;28;20052;-72
2022/01/29 03:53:02;;;;;;;72.77;32.27;;;;;;;;;;5070492;28;20049;-72
2022/01/29 03:55:28;;;;;;;72.57;34.57;;;;;;;;;;5053338;28;20052;-72
2022/01/29 03:57:54;;;;;;;63.47;30.43;;;;;;;;;;5050650;28;20061;-72
2022/01/29 04:00:20;;;;;;;70.93;34.10;;;;;;;;;;5050162;28;20037;-72
2022/01/29 04:02:46;;;;;;;70.67;33.23;;;;;;;;;;5049432;28;20052;-72
2022/01/29 04:05:15;;;;;;;66.17;31.43;;;;;;;;;;5049879;28;20164;-72
2022/01/29 04:07:41;;;;;;;63.40;31.73;;;;;;;;;;5049012;28;20418;-72
2022/01/29 04:10:08;;;;;;;65.77;29.67;;;;;;;;;;5050370;28;20045;-72
2022/01/29 04:12:40;;;;;;;63.50;29.53;;;;;;;;;;5050115;28;20041;-72
2022/01/29 04:15:06;;;;;;;56.53;31.27;;;;;;;;;;5049069;28;20056;-72
2022/01/29 04:17:32;;;;;;;57.27;27.63;;;;;;;;;;5049838;28;20059;-72
2022/01/29 04:19:58;;;;;;;48.47;25.43;;;;;;;;;;5049857;28;20053;-72
2022/01/29 04:22:27;;;;;;;54.87;26.23;;;;;;;;;;5049883;28;20048;-72
2022/01/29 04:24:53;;;;;;;53.93;27.17;;;;;;;;;;5050128;28;20419;-72
2022/01/29 04:27:23;;;;;;;52.53;27.97;;;;;;;;;;5049232;28;20049;-72
2022/01/29 04:30:07;;;;;;;44.78;25.73;;;;;;;;;;5049636;28;20057;-72
2022/01/29 04:35:14;;;;;;;54.60;25.17;;;;;;;;;;5049666;28;20135;-72
2022/01/29 04:37:40;;;;;;;56.70;24.50;;;;;;;;;;5049793;28;20049;-72
2022/01/29 04:40:07;;;;;;;43.23;24.57;;;;;;;;;;5053373;28;20043;-72
2022/01/29 04:42:36;;;;;;;51.40;24.77;;;;;;;;;;5069353;28;20068;-72
2022/01/29 04:45:02;;;;;;;46.50;26.40;;;;;;;;;;5069317;28;20044;-72
2022/01/29 04:47:28;;;;;;;49.87;24.97;;;;;;;;;;5069339;28;20028;-72
2022/01/29 04:49:54;;;;;;;52.57;26.30;;;;;;;;;;5069332;28;20232;-72
2022/01/29 04:52:20;;;;;;;46.83;23.40;;;;;;;;;;5069079;28;20383;-72
2022/01/29 04:54:46;;;;;;;43.37;23.23;;;;;;;;;;5069269;28;20045;-72
2022/01/29 04:57:12;;;;;;;38.83;23.70;;;;;;;;;;5069213;28;20530;-72
2022/01/29 04:59:38;;;;;;;49.10;23.57;;;;;;;;;;5069490;28;20048;-72
2022/01/29 05:02:07;;;;;;;42.67;22.47;;;;;;;;;;5069038;28;20045;-72
2022/01/29 05:04:33;;;;;;;42.90;20.77;;;;;;;;;;5069164;28;20059;-72
2022/01/29 05:06:59;;;;;;;40.33;22.97;;;;;;;;;;5069377;28;20401;-72
2022/01/29 05:09:25;;;;;;;41.70;22.37;;;;;;;;;;5067588;28;20098;-73
2022/01/29 05:11:53;;;;;;;44.67;21.67;;;;;;;;;;5048774;28;20045;-72
2022/01/29 05:14:36;;;;;;;34.57;20.00;;;;;;;;;;5048177;28;20044;-72
2022/01/29 05:27:57;;;;;;;30.43;19.50;;;;;;;;;;5069047;28;20407;-71
2022/01/29 05:30:26;;;;;;;40.23;21.53;;;;;;;;;;5068434;28;20067;-71
2022/01/29 05:32:52;;;;;;;38.77;19.60;;;;;;;;;;5068980;28;20110;-72
2022/01/29 05:35:18;;;;;;;36.27;20.47;;;;;;;;;;5068910;28;20040;-71
2022/01/29 05:37:46;;;;;;;32.50;18.87;;;;;;;;;;5068515;28;20780;-72
2022/01/29 05:40:14;;;;;;;36.83;20.20;;;;;;;;;;5052710;28;20133;-72
2022/01/29 05:42:40;;;;;;;34.07;19.67;;;;;;;;;;5048616;28;20471;-72
2022/01/29 05:45:06;;;;;;;39.50;20.20;;;;;;;;;;5047485;28;20124;-71
2022/01/29 05:47:33;;;;;;;37.40;21.50;;;;;;;;;;5048287;28;20792;-71
2022/01/29 05:49:59;;;;;;;35.23;20.83;;;;;;;;;;5067734;28;20049;-72
2022/01/29 05:52:28;;;;;;;34.77;19.03;;;;;;;;;;5068568;28;20052;-71
2022/01/29 05:54:54;;;;;;;33.57;19.23;;;;;;;;;;5068504;28;20447;-71
2022/01/29 05:57:20;;;;;;;31.80;19.37;;;;;;;;;;5069099;28;20136;-72
2022/01/29 05:59:46;;;;;;;34.67;17.87;;;;;;;;;;5068754;28;20037;-71
2022/01/29 06:02:12;;;;;;;33.50;19.40;;;;;;;;;;5068885;28;20049;-72
2022/01/29 06:04:38;;;;;;;40.17;21.47;;;;;;;;;;5068534;28;20047;-71
2022/01/29 06:07:04;;;;;;;28.90;18.50;;;;;;;;;;5067421;28;20483;-72
2022/01/29 06:09:32;;;;;;;39.37;18.07;;;;;;;;;;5068500;28;20052;-72
2022/01/29 06:11:58;;;;;;;33.57;18.50;;;;;;;;;;5068735;28;20040;-72
2022/01/29 06:14:24;;;;;;;35.60;17.73;;;;;;;;;;5068607;28;20541;-71
2022/01/29 06:16:50;;;;;;;28.07;18.90;;;;;;;;;;5068441;28;20072;-72
2022/01/29 06:19:22;;;;;;;25.93;16.37;;;;;;;;;;5068752;28;20088;-72
2022/01/29 06:21:48;;;;;;;23.33;14.73;;;;;;;;;;5056418;28;20049;-73
2022/01/29 06:24:14;;;;;;;33.17;16.50;;;;;;;;;;5057633;28;20535;-72
2022/01/29 06:26:40;;;;;;;30.87;17.07;;;;;;;;;;5056809;28;20037;-71
2022/01/29 06:29:06;;;;;;;25.90;16.17;;;;;;;;;;5055902;28;20048;-71
2022/01/29 06:31:32;;;;;;;29.07;15.47;;;;;;;;;;5056733;28;20053;-72
2022/01/29 06:33:59;;;;;;;31.57;17.03;;;;;;;;;;5051313;28;20576;-71
2022/01/29 06:36:27;;;;;;;27.47;16.77;;;;;;;;;;5048355;28;20045;-72
2022/01/29 06:38:53;;;;;;;31.83;15.33;;;;;;;;;;5054087;28;20246;-71
2022/01/29 06:41:19;;;;;;;30.03;15.47;;;;;;;;;;5058764;28;20119;-71
2022/01/29 06:43:45;;;;;;;26.37;13.87;;;;;;;;;;5056968;28;20045;-71
2022/01/29 06:46:11;;;;;;;26.47;14.37;;;;;;;;;;5055597;28;20041;-71
2022/01/29 06:48:37;;;;;;;27.93;13.97;;;;;;;;;;5058795;28;20048;-71
2022/01/29 06:51:03;;;;;;;19.07;12.97;;;;;;;;;;5062372;28;20115;-71
2022/01/29 06:53:32;;;;;;;19.60;12.77;;;;;;;;;;5065939;28;20081;-71
2022/01/29 06:55:58;;;;;;;21.43;12.20;;;;;;;;;;5060384;28;20091;-71
2022/01/29 06:58:24;;;;;;;22.70;13.43;;;;;;;;;;5061051;28;20036;-71
2022/01/29 07:00:50;;;;;;;26.43;12.87;;;;;;;;;;5061978;28;20083;-71
2022/01/29 07:03:16;;;;;;;25.80;13.67;;;;;;;;;;5061217;28;20498;-71
2022/01/29 07:05:42;;;;;;;24.50;12.37;;;;;;;;;;5054658;28;20041;-71
2022/01/29 07:08:08;;;;;;;22.80;11.80;;;;;;;;;;5051308;28;20499;-71
2022/01/29 07:10:38;;;;;;;22.00;12.27;;;;;;;;;;5050967;28;20048;-72
2022/01/29 07:13:04;;;;;;;24.73;13.50;;;;;;;;;;5051701;28;20101;-72
2022/01/29 07:15:30;;;;;;;25.03;12.27;;;;;;;;;;5051418;28;20128;-71
2022/01/29 07:17:56;;;;;;;26.23;13.23;;;;;;;;;;5051267;28;20886;-71
2022/01/29 07:20:22;;;;;;;23.47;13.27;;;;;;;;;;5053696;28;20090;-71
2022/01/29 07:22:48;;;;;;;21.00;13.37;;;;;;;;;;5049864;28;20045;-71
2022/01/29 07:25:16;;;;;;;29.13;14.97;;;;;;;;;;5053582;28;20068;-72
2022/01/29 07:27:45;;;;;;;23.47;13.40;;;;;;;;;;5059822;28;20049;-72
2022/01/29 07:30:11;;;;;;;29.47;13.77;;;;;;;;;;5051089;28;20067;-72
2022/01/29 07:32:42;;;;;;;23.43;13.30;;;;;;;;;;5050987;28;20572;-72
2022/01/29 07:35:08;;;;;;;26.87;12.70;;;;;;;;;;5051321;28;20045;-71
2022/01/29 07:37:34;;;;;;;31.53;13.90;;;;;;;;;;5050638;28;20579;-71
2022/01/29 07:40:00;;;;;;;23.83;13.97;;;;;;;;;;5051360;28;20140;-72
2022/01/29 07:42:26;;;;;;;28.90;15.37;;;;;;;;;;5049543;28;20476;-71
2022/01/29 07:44:52;;;;;;;29.30;16.47;;;;;;;;;;5051060;28;20052;-71
2022/01/29 07:47:21;;;;;;;23.57;14.20;;;;;;;;;;5050839;28;20135;-71
2022/01/29 07:49:47;;;;;;;25.90;15.13;;;;;;;;;;5050356;28;20140;-71
2022/01/29 07:52:13;;;;;;;27.33;15.37;;;;;;;;;;5050751;28;20051;-71
2022/01/29 07:54:39;;;;;;;28.30;16.50;;;;;;;;;;5052098;28;20114;-71
2022/01/29 07:57:05;;;;;;;24.80;15.40;;;;;;;;;;5070329;28;20674;-71
2022/01/29 07:59:31;;;;;;;26.33;14.77;;;;;;;;;;5069760;28;20098;-71
2022/01/29 08:01:57;;;;;;;27.03;15.23;;;;;;;;;;5070299;28;20049;-71
2022/01/29 08:04:25;;;;;;;29.50;15.53;;;;;;;;;;5069082;28;20495;-71
2022/01/29 08:06:52;;;;;;;28.80;15.47;;;;;;;;;;5070351;28;20033;-71
2022/01/29 08:09:18;;;;;;;25.63;15.23;;;;;;;;;;5063096;28;20079;-71
2022/01/29 08:11:44;;;;;;;26.00;15.07;;;;;;;;;;5054408;28;20052;-71
2022/01/29 08:14:10;;;;;;;26.73;15.23;;;;;;;;;;5065226;28;20094;-71
2022/01/29 08:16:36;;;;;;;23.43;13.13;;;;;;;;;;5068521;28;20039;-71
2022/01/29 08:19:02;;;;;;;20.20;11.73;;;;;;;;;;5055697;28;20398;-71
2022/01/29 08:21:31;;;;;;;28.13;12.23;;;;;;;;;;5069675;28;20041;-71
2022/01/29 08:23:57;;;;;;;23.53;10.83;;;;;;;;;;5068143;28;20058;-71
2022/01/29 08:26:23;;;;;;;22.03;10.97;;;;;;;;;;5067756;28;20119;-71
2022/01/29 08:28:48;;;;;;;18.37;10.43;;;;;;;;;;5069035;28;20094;-71
2022/01/29 08:31:15;;;;;;;19.60;10.17;;;;;;;;;;5068498;28;20091;-71
2022/01/29 08:33:41;;;;;;;22.30;10.97;;;;;;;;;;5069141;28;20064;-71
2022/01/29 08:36:08;;;;;;;16.67;9.50;;;;;;;;;;5068573;28;20498;-71
2022/01/29 08:38:37;;;;;;;18.10;9.03;;;;;;;;;;5069064;28;20052;-71
2022/01/29 08:41:03;;;;;;;21.87;10.43;;;;;;;;;;5067553;28;20052;-71
2022/01/29 08:43:29;;;;;;;13.70;9.00;;;;;;;;;;5059861;28;20041;-71
2022/01/29 08:45:55;;;;;;;15.93;8.40;;;;;;;;;;5058319;28;20793;-71
2022/01/29 08:48:24;;;;;;;15.70;8.67;;;;;;;;;;5062160;28;20040;-71
2022/01/29 08:50:52;;;;;;;16.67;8.73;;;;;;;;;;5060170;28;20128;-71
2022/01/29 08:53:19;;;;;;;16.83;8.23;;;;;;;;;;5061196;28;20048;-71
2022/01/29 08:55:45;;;;;;;14.30;8.27;;;;;;;;;;5065092;28;20132;-71
2022/01/29 08:58:14;;;;;;;15.50;9.07;;;;;;;;;;5067637;28;20048;-71
2022/01/29 09:00:42;;;;;;;22.40;9.03;;;;;;;;;;5049611;28;20037;-71
2022/01/29 09:03:08;;;;;;;22.83;9.77;;;;;;;;;;5066066;28;20126;-71
2022/01/29 09:05:34;;;;;;;14.30;8.57;;;;;;;;;;5069012;28;20049;-71
2022/01/29 09:08:04;;;;;;;17.63;10.33;;;;;;;;;;5067743;28;20106;-71
2022/01/29 09:10:31;;;;;;;16.33;9.13;;;;;;;;;;5066415;28;20044;-71
2022/01/29 09:12:57;;;;;;;15.50;9.20;;;;;;;;;;5066775;28;20098;-72
2022/01/29 09:15:24;;;;;;;18.43;9.17;;;;;;;;;;5060566;28;20040;-72
2022/01/29 09:17:53;;;;;;;18.13;8.97;;;;;;;;;;5055021;28;20155;-71
2022/01/29 09:20:19;;;;;;;18.43;8.37;;;;;;;;;;5056039;28;20103;-71
2022/01/29 09:22:45;;;;;;;16.50;8.83;;;;;;;;;;5059132;28;20040;-71
2022/01/29 09:25:11;;;;;;;14.47;8.87;;;;;;;;;;5057304;28;20079;-71
2022/01/29 09:27:37;;;;;;;21.50;10.00;;;;;;;;;;5054494;28;20049;-71
2022/01/29 09:30:04;;;;;;;20.03;9.77;;;;;;;;;;5056996;28;20145;-71
2022/01/29 09:32:34;;;;;;;16.27;9.77;;;;;;;;;;5055571;28;20127;-71
2022/01/29 09:35:00;;;;;;;18.43;9.53;;;;;;;;;;5056833;28;20056;-71
2022/01/29 09:37:26;;;;;;;17.53;10.10;;;;;;;;;;5054314;28;20036;-72
2022/01/29 09:39:56;;;;;;;18.97;7.97;;;;;;;;;;5054002;28;20450;-72
2022/01/29 09:42:22;;;;;;;14.93;8.50;;;;;;;;;;5056266;28;20123;-71
2022/01/29 09:44:51;;;;;;;14.20;8.20;;;;;;;;;;5066807;28;20033;-71
2022/01/29 09:47:22;;;;;;;14.27;7.67;;;;;;;;;;5049066;28;20368;-71
2022/01/29 09:49:48;;;;;;;16.37;7.30;;;;;;;;;;5049191;28;20051;-71
2022/01/29 09:52:14;;;;;;;12.27;7.30;;;;;;;;;;5068504;28;20045;-71
2022/01/29 09:54:40;;;;;;;15.73;7.87;;;;;;;;;;5068708;28;20049;-71
2022/01/29 09:57:06;;;;;;;13.53;6.90;;;;;;;;;;5067130;28;20075;-72
2022/01/29 09:59:32;;;;;;;16.70;6.43;;;;;;;;;;5048348;28;20048;-72
2022/01/29 10:02:01;;;;;;;12.60;6.43;;;;;;;;;;5048077;28;20041;-71
2022/01/29 10:04:29;;;;;;;16.53;7.10;;;;;;;;;;5048663;28;20044;-72
2022/01/29 10:07:14;;;;;;;12.70;6.27;;;;;;;;;;5048353;28;20057;-71
2022/01/29 10:09:40;;;;;;;13.73;6.03;;;;;;;;;;5048807;28;20037;-72
2022/01/29 10:12:20;;;;;;;19.47;6.07;;;;;;;;;;5058305;28;20127;-72
2022/01/29 10:14:47;;;;;;;12.90;5.97;;;;;;;;;;5068294;28;20124;-72
2022/01/29 10:17:13;;;;;;;9.40;5.30;;;;;;;;;;5067814;28;20063;-72
2022/01/29 10:19:39;;;;;;;12.97;6.03;;;;;;;;;;5068398;28;20490;-72
2022/01/29 10:22:08;;;;;;;13.27;5.47;;;;;;;;;;5068026;28;20512;-72
2022/01/29 10:24:48;;;;;;;12.40;5.83;;;;;;;;;;5070886;28;20055;-72
2022/01/29 10:27:14;;;;;;;9.77;5.17;;;;;;;;;;5071097;28;20052;-71
2022/01/29 10:29:40;;;;;;;12.13;5.10;;;;;;;;;;5071851;28;20513;-73
2022/01/29 10:32:07;;;;;;;13.20;5.43;;;;;;;;;;5071995;28;20052;-73
2022/01/29 10:34:37;;;;;;;12.10;5.63;;;;;;;;;;5064475;28;20065;-73
2022/01/29 10:37:20;;;;;;;11.00;4.83;;;;;;;;;;5051879;28;20048;-72
2022/01/29 10:39:52;;;;;;;16.83;4.97;;;;;;;;;;5063790;28;20155;-71
2022/01/29 10:42:26;;;;;;;8.83;3.53;;;;;;;;;;5060909;28;20310;-71
2022/01/29 10:44:53;;;;;;;9.17;4.67;;;;;;;;;;5059818;28;20057;-71
2022/01/29 10:47:22;;;;;;;13.27;4.70;;;;;;;;;;5058552;28;20132;-72
2022/01/29 10:49:55;;;;;;;10.53;3.07;;;;;;;;;;5061981;28;20075;-72
2022/01/29 10:52:32;;;;;;;13.25;3.28;;;;;;;;;;5064687;28;20040;-71
2022/01/29 10:55:03;;;;;;;8.13;2.80;;;;;;;;;;5062256;28;20397;-72
2022/01/29 10:57:35;;;;;;;9.07;3.13;;;;;;;;;;5060575;28;20155;-72
2022/01/29 11:00:03;;;;;;;12.73;2.93;;;;;;;;;;5059306;28;20441;-72
2022/01/29 11:02:30;;;;;;;15.67;2.73;;;;;;;;;;5059146;28;20112;-72
2022/01/29 11:04:57;;;;;;;6.87;2.23;;;;;;;;;;5060453;28;20049;-71
2022/01/29 11:07:29;;;;;;;10.97;2.60;;;;;;;;;;5059988;28;20083;-71
2022/01/29 11:10:01;;;;;;;8.87;2.40;;;;;;;;;;5058799;28;20059;-72
2022/01/29 11:12:30;;;;;;;14.83;3.20;;;;;;;;;;5057690;28;20131;-72
2022/01/29 11:15:02;;;;;;;9.03;3.20;;;;;;;;;;5064157;28;20235;-72
2022/01/29 11:17:29;;;;;;;8.07;2.40;;;;;;;;;;5060924;28;20048;-71
2022/01/29 11:19:55;;;;;;;8.17;1.97;;;;;;;;;;5060822;28;20053;-72
2022/01/29 11:22:23;;;;;;;11.47;2.20;;;;;;;;;;5062675;28;20037;-72
2022/01/29 11:24:50;;;;;;;5.90;2.27;;;;;;;;;;5060439;28;20773;-72
2022/01/29 11:27:20;;;;;;;12.17;2.63;;;;;;;;;;5060388;28;20610;-72
2022/01/29 11:30:05;;;;;;;7.67;1.80;;;;;;;;;;5058982;28;20048;-71
2022/01/29 11:32:32;;;;;;;7.87;2.10;;;;;;;;;;5061150;28;20053;-72
2022/01/29 11:35:04;;;;;;;9.37;2.70;;;;;;;;;;5060116;28;20052;-71
2022/01/29 11:37:47;;;;;;;13.07;4.03;;;;;;;;;;5063379;28;20120;-72
2022/01/29 11:40:25;;;;;;;8.97;2.63;;;;;;;;;;5058982;28;20037;-72
2022/01/29 11:42:53;;;;;;;12.40;2.73;;;;;;;;;;5058455;28;20044;-72
2022/01/29 11:45:41;;;;;;;10.50;3.00;;;;;;;;;;5059838;28;20052;-72
2022/01/29 11:48:08;;;;;;;10.47;3.27;;;;;;;;;;5067047;28;20502;-72
2022/01/29 11:50:36;;;;;;;11.10;2.10;;;;;;;;;;5057466;28;20135;-71
2022/01/29 11:53:04;;;;;;;7.80;2.07;;;;;;;;;;5061473;28;20079;-71
2022/01/29 11:55:34;;;;;;;12.73;2.77;;;;;;;;;;5064511;28;20044;-72
2022/01/29 11:58:23;;;;;;;8.80;2.63;;;;;;;;;;5063394;28;20040;-72
2022/01/29 12:00:51;;;;;;;9.97;2.43;;;;;;;;;;5059530;28;20048;-72
2022/01/29 12:03:42;;;;;;;5.83;1.50;;;;;;;;;;5056408;28;20110;-72
2022/01/29 12:06:27;;;;;;;7.73;1.90;;;;;;;;;;5055458;28;20417;-72
2022/01/29 12:09:06;;;;;;;4.37;1.73;;;;;;;;;;5059731;28;20041;-72
2022/01/29 12:11:33;;;;;;;6.43;1.80;;;;;;;;;;5054700;28;20132;-72
2022/01/29 12:14:15;;;;;;;7.37;1.90;;;;;;;;;;5050260;28;20732;-71
2022/01/29 12:16:47;;;;;;;4.40;1.40;;;;;;;;;;5051618;28;20152;-71
2022/01/29 12:19:32;;;;;;;9.97;1.80;;;;;;;;;;5050586;28;20099;-71
2022/01/29 12:22:01;;;;;;;10.30;1.90;;;;;;;;;;5050187;28;20175;-71
2022/01/29 12:24:27;;;;;;;8.13;2.00;;;;;;;;;;5049510;28;20041;-71
2022/01/29 12:27:04;;;;;;;7.50;2.83;;;;;;;;;;5050091;28;20133;-71
2022/01/29 12:29:31;;;;;;;10.83;3.03;;;;;;;;;;5050348;28;20048;-71
2022/01/29 12:31:57;;;;;;;8.77;2.90;;;;;;;;;;5069500;28;20053;-71
2022/01/29 12:34:24;;;;;;;8.90;2.17;;;;;;;;;;5068802;28;20040;-71
2022/01/29 12:36:53;;;;;;;7.73;2.20;;;;;;;;;;5059128;28;20052;-71
2022/01/29 12:39:23;;;;;;;11.87;2.87;;;;;;;;;;5048208;28;20053;-71
2022/01/29 12:42:07;;;;;;;8.80;2.30;;;;;;;;;;5049324;28;20049;-71
2022/01/29 12:44:33;;;;;;;6.97;2.60;;;;;;;;;;5049631;28;20207;-71
2022/01/29 12:46:59;;;;;;;10.57;2.93;;;;;;;;;;5048439;28;20052;-71
2022/01/29 12:49:25;;;;;;;16.37;4.23;;;;;;;;;;5049494;28;20040;-71
2022/01/29 12:51:51;;;;;;;7.70;2.90;;;;;;;;;;5048728;28;20133;-71
2022/01/29 12:54:17;;;;;;;11.60;2.30;;;;;;;;;;5049333;28;20080;-71
2022/01/29 12:56:43;;;;;;;12.63;2.90;;;;;;;;;;5049145;28;20040;-71
2022/01/29 12:59:11;;;;;;;10.37;3.23;;;;;;;;;;5047622;28;20426;-72
2022/01/29 13:01:41;;;;;;;8.07;2.47;;;;;;;;;;5049988;28;20041;-71
2022/01/29 13:04:08;;;;;;;9.27;2.67;;;;;;;;;;5063045;28;20619;-71
2022/01/29 13:06:34;;;;;;;11.97;2.17;;;;;;;;;;5059338;28;20037;-71
2022/01/29 13:09:18;;;;;;;8.50;2.20;;;;;;;;;;5059929;28;20040;-71
2022/01/29 13:11:46;;;;;;;14.15;3.50;;;;;;;;;;5058046;28;20060;-71
2022/01/29 13:14:22;;;;;;;17.37;2.80;;;;;;;;;;5054870;28;20045;-71
2022/01/29 13:16:50;;;;;;;11.07;2.57;;;;;;;;;;5057364;28;20166;-71
2022/01/29 13:19:17;;;;;;;8.97;2.97;;;;;;;;;;5057110;28;20487;-71
2022/01/29 13:21:43;;;;;;;10.00;1.87;;;;;;;;;;5057496;28;20068;-71
2022/01/29 13:24:28;;;;;;;8.77;2.37;;;;;;;;;;5055019;28;20048;-71
2022/01/29 13:27:06;;;;;;;13.50;2.73;;;;;;;;;;5056944;28;20463;-71
2022/01/29 13:29:36;;;;;;;8.73;2.50;;;;;;;;;;5057030;28;20052;-71
2022/01/29 13:32:06;;;;;;;5.73;2.13;;;;;;;;;;5056915;28;20052;-71
2022/01/29 13:34:35;;;;;;;8.57;2.70;;;;;;;;;;5058237;28;20087;-71
2022/01/29 13:37:02;;;;;;;11.07;2.80;;;;;;;;;;5057182;28;20052;-71
2022/01/29 13:39:47;;;;;;;13.70;3.50;;;;;;;;;;5055600;28;20052;-71
2022/01/29 13:42:18;;;;;;;10.87;2.70;;;;;;;;;;5056842;28;20127;-71
2022/01/29 13:45:03;;;;;;;8.47;2.73;;;;;;;;;;5057809;28;20041;-71
2022/01/29 13:47:31;;;;;;;11.43;4.10;;;;;;;;;;5058681;28;20052;-71
2022/01/29 13:49:57;;;;;;;18.63;5.80;;;;;;;;;;5056240;28;20044;-71
2022/01/29 13:52:23;;;;;;;10.43;3.37;;;;;;;;;;5056262;28;20043;-71
2022/01/29 13:54:50;;;;;;;10.60;3.10;;;;;;;;;;5056080;28;20121;-71
2022/01/29 13:57:16;;;;;;;12.83;2.60;;;;;;;;;;5055505;28;20045;-71
2022/01/29 13:59:45;;;;;;;10.70;2.23;;;;;;;;;;5059336;28;20041;-71
2022/01/29 14:02:12;;;;;;;9.77;2.63;;;;;;;;;;5060469;28;20045;-71
2022/01/29 14:04:40;;;;;;;13.47;2.60;;;;;;;;;;5060697;28;20394;-71
2022/01/29 14:07:14;;;;;;;9.03;2.30;;;;;;;;;;5062278;28;20977;-71
2022/01/29 14:09:49;;;;;;;8.37;2.17;;;;;;;;;;5061518;28;20733;-71
2022/01/29 14:12:18;;;;;;;8.70;2.53;;;;;;;;;;5060121;28;20546;-71
2022/01/29 14:14:44;;;;;;;8.40;2.67;;;;;;;;;;5060231;28;20136;-71
2022/01/29 14:17:37;;;;;;;10.90;2.43;;;;;;;;;;5060045;28;20186;-71
2022/01/29 14:20:05;;;;;;;10.50;2.33;;;;;;;;;;5060813;28;20055;-72
2022/01/29 14:22:36;;;;;;;8.67;2.13;;;;;;;;;;5054108;28;20083;-71
2022/01/29 14:25:06;;;;;;;12.10;1.93;;;;;;;;;;5050888;28;20045;-71
2022/01/29 14:27:33;;;;;;;9.13;2.00;;;;;;;;;;5051262;28;20450;-71
2022/01/29 14:29:59;;;;;;;11.73;2.40;;;;;;;;;;5050929;28;20136;-71
2022/01/29 14:32:26;;;;;;;10.97;2.47;;;;;;;;;;5051166;28;20080;-71
2022/01/29 14:34:52;;;;;;;9.50;2.67;;;;;;;;;;5050530;28;20053;-71
2022/01/29 14:37:19;;;;;;;10.63;2.90;;;;;;;;;;5050895;28;20107;-71
2022/01/29 14:39:47;;;;;;;7.10;1.80;;;;;;;;;;5051060;28;20072;-71
2022/01/29 14:42:16;;;;;;;10.57;2.27;;;;;;;;;;5050975;28;20494;-72
2022/01/29 14:44:44;;;;;;;8.37;2.00;;;;;;;;;;5050649;28;20052;-70
2022/01/29 14:47:13;;;;;;;7.63;2.10;;;;;;;;;;5051025;28;20111;-71